Time;durP1;ratioP1;P1;durP2;ratioP2;P2;SDS_P1;SDS_P2;PMS_P1;PMS_P2;Temp;Humidity;BMP_temperature;BMP_pressure;BME280_temperature;BME280_humidity;BME280_pressure;Samples;Min_cycle;Max_cycle;Signal;HPM_P1;HPM_P2
2022/09/09 00:01:39;;;;;;;;;;;;;;;21.67;26.90;98192.00;4999932;28;952;-77
2022/09/09 00:04:11;;;;;;;;;;;;;;;21.94;26.58;98188.09;5015920;28;1054;-77
2022/09/09 00:06:49;;;;;;;;;;;;;;;22.41;25.87;98196.25;5016175;28;988;-77
2022/09/09 00:09:18;;;;;;;;;;;;;;;22.27;26.01;98186.84;5015786;28;1006;-77
2022/09/09 00:11:46;;;;;;;;;;;;;;;22.03;26.22;98174.13;5016378;28;1056;-77
2022/09/09 00:14:30;;;;;;;;;;;;;;;21.87;26.50;98174.13;4999319;28;974;-78
2022/09/09 00:16:56;;;;;;;;;;;;;;;21.79;26.54;98174.28;5037709;28;874;-77
2022/09/09 00:19:29;;;;;;;;;;;;;;;21.63;27.05;98179.94;5020101;28;1954;-77
2022/09/09 00:21:58;;;;;;;;;;;;;;;21.60;26.90;98172.31;5020254;28;859;-77
2022/09/09 00:24:28;;;;;;;;;;;;;;;22.25;26.13;98172.34;5019910;28;899;-78
2022/09/09 00:26:55;;;;;;;;;;;;;;;22.14;26.19;98177.50;5019824;28;842;-77
2022/09/09 00:29:26;;;;;;;;;;;;;;;22.08;26.29;98173.59;5019675;28;848;-77
2022/09/09 00:31:54;;;;;;;;;;;;;;;21.88;26.50;98175.72;5019787;28;889;-77
2022/09/09 00:34:21;;;;;;;;;;;;;;;21.63;26.85;98171.47;5003157;28;901;-77
2022/09/09 00:36:47;;;;;;;;;;;;;;;22.02;26.62;98170.50;5019435;28;914;-77
2022/09/09 00:39:18;;;;;;;;;;;;;;;22.41;25.91;98176.38;5019493;28;1994;-77
2022/09/09 00:41:43;;;;;;;;;;;;;;;22.16;26.11;98175.00;5019647;28;886;-77
2022/09/09 00:44:30;;;;;;;;;;;;;;;22.05;26.21;98163.91;5036153;28;1208;-77
2022/09/09 00:47:14;;;;;;;;;;;;;;;21.77;26.96;98171.13;5019479;28;826;-77
2022/09/09 00:49:46;;;;;;;;;;;;;;;21.78;26.64;98155.72;5037141;28;1039;-77
2022/09/09 00:52:16;;;;;;;;;;;;;;;21.60;26.90;98161.00;5036654;28;1053;-77
2022/09/09 00:54:47;;;;;;;;;;;;;;;22.10;26.14;98151.25;5037419;28;878;-77
2022/09/09 00:57:17;;;;;;;;;;;;;;;22.28;26.26;98154.47;5002869;28;1496;-77
2022/09/09 00:59:46;;;;;;;;;;;;;;;22.08;26.44;98156.59;5019798;28;1905;-77
2022/09/09 01:02:43;;;;;;;;;;;;;;;21.69;26.81;98158.34;5037061;28;900;-77
2022/09/09 01:05:13;;;;;;;;;;;;;;;21.31;27.34;98153.19;4995123;28;1026;-77
2022/09/09 01:07:39;;;;;;;;;;;;;;;21.53;27.41;98149.84;4979417;28;990;-77
2022/09/09 01:10:12;;;;;;;;;;;;;;;21.77;26.88;98154.13;4995259;28;949;-77
2022/09/09 01:12:38;;;;;;;;;;;;;;;22.14;26.07;98159.72;4963364;28;1248;-77
2022/09/09 01:15:24;;;;;;;;;;;;;;;22.29;25.87;98167.38;4978865;28;1263;-77
2022/09/09 01:17:53;;;;;;;;;;;;;;;22.01;26.55;98174.53;4963297;28;1971;-77
2022/09/09 01:20:37;;;;;;;;;;;;;;;21.72;26.75;98168.81;4995394;28;1364;-77
2022/09/09 01:23:03;;;;;;;;;;;;;;;21.64;26.88;98163.75;4995084;28;1132;-77
2022/09/09 01:25:43;;;;;;;;;;;;;;;21.70;26.72;98174.09;4995030;28;1111;-77
2022/09/09 01:28:16;;;;;;;;;;;;;;;21.76;26.76;98157.38;4995230;28;1357;-77
2022/09/09 01:30:42;;;;;;;;;;;;;;;22.33;26.09;98162.41;4995177;28;1039;-77
2022/09/09 01:33:14;;;;;;;;;;;;;;;22.39;25.96;98159.03;4963122;28;1579;-78
2022/09/09 01:35:45;;;;;;;;;;;;;;;21.92;26.23;98160.22;4979337;28;959;-78
2022/09/09 01:38:11;;;;;;;;;;;;;;;21.80;26.64;98158.88;4995046;28;1918;-77
2022/09/09 01:40:37;;;;;;;;;;;;;;;21.76;26.67;98152.53;4982906;28;1220;-78
2022/09/09 01:43:03;;;;;;;;;;;;;;;21.78;26.63;98161.38;5022876;28;1373;-77
2022/09/09 01:45:28;;;;;;;;;;;;;;;21.72;26.78;98162.34;5023058;28;1262;-77
2022/09/09 01:47:54;;;;;;;;;;;;;;;21.82;26.54;98156.44;5022938;28;1136;-77
2022/09/09 01:50:39;;;;;;;;;;;;;;;22.05;26.55;98151.78;5039981;28;1252;-77
2022/09/09 01:53:05;;;;;;;;;;;;;;;22.24;25.83;98148.09;5039128;28;1409;-77
2022/09/09 01:55:42;;;;;;;;;;;;;;;22.28;25.87;98148.78;5006525;28;1229;-77
2022/09/09 01:58:22;;;;;;;;;;;;;;;22.01;26.30;98151.09;5007119;28;1965;-78
2022/09/09 02:00:55;;;;;;;;;;;;;;;21.78;26.64;98150.03;5007223;28;1073;-77
2022/09/09 02:03:23;;;;;;;;;;;;;;;21.57;27.17;98159.06;5006452;28;1332;-77
2022/09/09 02:05:55;;;;;;;;;;;;;;;21.54;27.15;98162.78;4979190;28;1137;-77
2022/09/09 02:08:46;;;;;;;;;;;;;;;22.18;26.36;98166.88;4978972;28;1128;-78
2022/09/09 02:11:13;;;;;;;;;;;;;;;22.16;25.99;98160.84;4962682;28;1214;-77
2022/09/09 02:13:46;;;;;;;;;;;;;;;22.02;26.31;98159.16;4979058;28;1262;-77
2022/09/09 02:16:15;;;;;;;;;;;;;;;21.88;26.58;98164.38;4963404;28;1399;-77
2022/09/09 02:18:43;;;;;;;;;;;;;;;21.76;26.73;98152.53;4962835;28;1967;-78
2022/09/09 02:21:11;;;;;;;;;;;;;;;21.73;26.68;98159.06;4978915;28;1344;-77
2022/09/09 02:23:37;;;;;;;;;;;;;;;21.76;26.51;98163.88;4963397;28;1332;-78
2022/09/09 02:26:07;;;;;;;;;;;;;;;22.14;26.19;98169.00;4963364;28;1117;-77
2022/09/09 02:28:33;;;;;;;;;;;;;;;22.38;25.84;98168.75;4921274;29;1162;-77
2022/09/09 02:30:58;;;;;;;;;;;;;;;22.17;26.23;98159.59;4921530;29;1181;-77
2022/09/09 02:33:34;;;;;;;;;;;;;;;21.95;26.70;98169.88;4920019;29;1301;-77
2022/09/09 02:36:03;;;;;;;;;;;;;;;21.91;26.66;98169.16;4928873;28;1089;-78
2022/09/09 02:38:29;;;;;;;;;;;;;;;21.71;26.79;98172.06;4962384;28;1967;-78
2022/09/09 02:41:01;;;;;;;;;;;;;;;21.56;27.18;98160.31;4947318;28;1145;-77
2022/09/09 02:43:33;;;;;;;;;;;;;;;21.77;26.76;98162.63;4962524;28;1319;-77
2022/09/09 02:46:02;;;;;;;;;;;;;;;22.16;26.28;98158.00;4962401;28;1169;-77
2022/09/09 02:48:36;;;;;;;;;;;;;;;22.26;25.66;98151.25;4962773;28;1228;-77
2022/09/09 02:51:10;;;;;;;;;;;;;;;21.84;26.54;98159.59;4946069;28;1228;-77
2022/09/09 02:53:40;;;;;;;;;;;;;;;21.79;26.78;98162.97;4962217;28;1335;-77
2022/09/09 02:56:09;;;;;;;;;;;;;;;21.67;26.81;98155.19;4942818;29;1444;-77
2022/09/09 02:58:39;;;;;;;;;;;;;;;21.81;26.58;98154.84;4949956;28;1902;-77
2022/09/09 03:01:05;;;;;;;;;;;;;;;21.74;26.70;98157.03;4984516;28;1357;-76
2022/09/09 03:03:31;;;;;;;;;;;;;;;21.43;27.38;98159.41;5000802;28;997;-77
2022/09/09 03:05:57;;;;;;;;;;;;;;;22.22;26.05;98161.09;4994602;28;1305;-78
2022/09/09 03:08:25;;;;;;;;;;;;;;;22.28;26.06;98154.47;5019899;28;1206;-78
2022/09/09 03:10:54;;;;;;;;;;;;;;;22.18;25.84;98149.88;5019832;28;998;-77
2022/09/09 03:13:19;;;;;;;;;;;;;;;21.76;26.89;98152.53;5019644;28;1064;-78
2022/09/09 03:15:45;;;;;;;;;;;;;;;21.54;26.97;98168.44;5003190;28;862;-77
2022/09/09 03:18:14;;;;;;;;;;;;;;;21.76;26.59;98169.53;5035986;28;1972;-77
2022/09/09 03:20:41;;;;;;;;;;;;;;;22.07;26.54;98171.97;5003206;28;900;-77
2022/09/09 03:23:07;;;;;;;;;;;;;;;22.25;26.10;98161.00;5019717;28;1299;-77
2022/09/09 03:25:33;;;;;;;;;;;;;;;22.12;26.23;98168.63;5012413;28;1095;-77
2022/09/09 03:27:59;;;;;;;;;;;;;;;22.00;26.32;98155.16;5035720;28;946;-77
2022/09/09 03:30:25;;;;;;;;;;;;;;;21.95;26.42;98161.38;5005119;28;1189;-77
2022/09/09 03:32:51;;;;;;;;;;;;;;;21.91;26.72;98163.47;5020616;28;993;-78
2022/09/09 03:35:17;;;;;;;;;;;;;;;21.79;26.39;98162.97;5021088;28;842;-77
2022/09/09 03:37:43;;;;;;;;;;;;;;;21.76;26.72;98155.38;4980926;28;1977;-77
2022/09/09 03:40:10;;;;;;;;;;;;;;;21.71;26.77;98155.91;4996458;28;2715;-77
2022/09/09 03:42:36;;;;;;;;;;;;;;;22.09;26.12;98169.50;4978986;28;1636;-77
2022/09/09 03:45:03;;;;;;;;;;;;;;;22.29;25.94;98167.38;4980780;28;1128;-77
2022/09/09 03:47:30;;;;;;;;;;;;;;;21.99;26.10;98165.69;4977200;28;1298;-78
2022/09/09 03:50:03;;;;;;;;;;;;;;;21.82;26.71;98167.75;4960821;28;1139;-78
2022/09/09 03:52:30;;;;;;;;;;;;;;;21.71;26.66;98161.56;4977361;28;886;-77
2022/09/09 03:54:56;;;;;;;;;;;;;;;21.73;26.73;98161.09;4945306;28;1270;-77
2022/09/09 03:57:22;;;;;;;;;;;;;;;21.75;26.64;98155.78;4960983;28;1762;-77
2022/09/09 03:59:48;;;;;;;;;;;;;;;22.08;26.22;98156.59;4977033;28;1976;-78
2022/09/09 04:02:15;;;;;;;;;;;;;;;22.16;26.15;98163.66;4960501;28;1255;-78
2022/09/09 04:04:40;;;;;;;;;;;;;;;22.00;26.35;98160.84;4996543;28;1348;-78
2022/09/09 04:07:06;;;;;;;;;;;;;;;21.73;26.64;98158.28;4996596;28;1120;-77
2022/09/09 04:09:32;;;;;;;;;;;;;;;21.74;26.91;98160.66;4963403;28;1444;-77
2022/09/09 04:11:58;;;;;;;;;;;;;;;21.78;26.59;98157.75;4979836;28;1371;-79
2022/09/09 04:14:27;;;;;;;;;;;;;;;21.78;26.62;98161.38;4960146;28;1076;-77
2022/09/09 04:16:54;;;;;;;;;;;;;;;21.85;26.38;98161.19;4969126;28;1319;-78
2022/09/09 04:19:19;;;;;;;;;;;;;;;22.26;25.94;98165.44;4993166;28;1973;-77
2022/09/09 04:21:45;;;;;;;;;;;;;;;22.36;25.68;98170.00;4995900;28;1374;-78
2022/09/09 04:24:10;;;;;;;;;;;;;;;22.10;25.99;98165.44;4995929;28;1115;-77
2022/09/09 04:26:36;;;;;;;;;;;;;;;21.98;26.37;98169.78;4997756;28;1358;-77
2022/09/09 04:29:07;;;;;;;;;;;;;;;21.69;26.60;98158.34;5015335;28;897;-78
2022/09/09 04:31:33;;;;;;;;;;;;;;;21.71;26.65;98172.06;4999477;28;1247;-77
2022/09/09 04:34:05;;;;;;;;;;;;;;;21.70;26.68;98171.28;4999328;28;1231;-78
2022/09/09 04:36:31;;;;;;;;;;;;;;;22.10;26.22;98171.09;5015733;28;1248;-77
2022/09/09 04:39:01;;;;;;;;;;;;;;;22.14;26.10;98160.50;4976032;28;1910;-78
2022/09/09 04:41:27;;;;;;;;;;;;;;;22.01;26.49;98159.59;4990471;28;1371;-78
2022/09/09 04:43:53;;;;;;;;;;;;;;;22.01;26.44;98168.09;4960022;28;1261;-78
2022/09/09 04:46:20;;;;;;;;;;;;;;;21.91;26.79;98171.97;4960171;28;1050;-77
2022/09/09 04:48:49;;;;;;;;;;;;;;;21.83;26.60;98168.53;4975745;28;1234;-77
2022/09/09 04:51:15;;;;;;;;;;;;;;;21.84;26.76;98168.09;4956036;28;1368;-78
2022/09/09 04:53:42;;;;;;;;;;;;;;;21.83;26.64;98163.69;4974323;28;1462;-77
2022/09/09 04:56:09;;;;;;;;;;;;;;;22.04;26.57;98167.22;4975951;28;1136;-77
2022/09/09 04:58:39;;;;;;;;;;;;;;;22.19;26.01;98176.97;4947694;29;1915;-77
2022/09/09 05:01:07;;;;;;;;;;;;;;;22.53;25.66;98169.97;4940324;29;1196;-78
2022/09/09 05:03:32;;;;;;;;;;;;;;;22.37;26.04;98179.31;4956476;29;1195;-77
2022/09/09 05:06:04;;;;;;;;;;;;;;;22.17;26.35;98187.13;4956472;29;992;-77
2022/09/09 05:08:30;;;;;;;;;;;;;;;21.84;26.68;98182.25;4956476;29;1063;-77
2022/09/09 05:10:55;;;;;;;;;;;;;;;21.81;27.11;98177.50;4986951;28;1634;-77
2022/09/09 05:13:22;;;;;;;;;;;;;;;21.91;26.96;98174.81;4979170;28;1105;-77
2022/09/09 05:15:54;;;;;;;;;;;;;;;21.80;26.86;98166.59;4979460;28;1252;-77
2022/09/09 05:18:19;;;;;;;;;;;;;;;21.81;26.96;98169.00;4978915;28;1902;-77
2022/09/09 05:20:45;;;;;;;;;;;;;;;21.89;26.80;98168.81;4948419;28;1235;-77
2022/09/09 05:23:13;;;;;;;;;;;;;;;22.31;26.21;98170.56;4995097;28;1147;-77
2022/09/09 05:25:43;;;;;;;;;;;;;;;22.15;26.24;98166.97;4978996;28;1068;-77
2022/09/09 05:28:09;;;;;;;;;;;;;;;22.02;26.64;98161.16;4972290;28;1070;-77
2022/09/09 05:30:34;;;;;;;;;;;;;;;21.91;26.72;98158.63;4975849;28;1110;-77
2022/09/09 05:33:02;;;;;;;;;;;;;;;21.81;26.90;98156.84;4994271;28;1550;-77
2022/09/09 05:35:27;;;;;;;;;;;;;;;21.84;26.94;98153.13;5016734;28;1060;-77
2022/09/09 05:37:53;;;;;;;;;;;;;;;21.69;27.43;98157.56;5016727;28;1910;-77
2022/09/09 05:40:18;;;;;;;;;;;;;;;21.88;26.94;98153.06;4999289;28;1259;-77
2022/09/09 05:42:45;;;;;;;;;;;;;;;22.39;26.29;98147.69;4999336;28;1348;-77
2022/09/09 05:45:11;;;;;;;;;;;;;;;22.29;26.04;98150.38;4986986;28;1193;-78
2022/09/09 05:47:37;;;;;;;;;;;;;;;21.98;26.85;98152.00;5013622;28;1279;-77
2022/09/09 05:50:05;;;;;;;;;;;;;;;21.95;26.85;98152.88;5008541;28;1269;-77
2022/09/09 05:52:31;;;;;;;;;;;;;;;21.71;27.17;98150.22;5015617;28;1213;-77
2022/09/09 05:54:59;;;;;;;;;;;;;;;21.62;27.29;98150.03;5021447;28;1543;-77
2022/09/09 05:57:25;;;;;;;;;;;;;;;21.62;27.44;98158.53;4999142;28;1109;-77
2022/09/09 05:59:50;;;;;;;;;;;;;;;21.54;27.72;98151.44;4999315;28;1918;-77
2022/09/09 06:02:16;;;;;;;;;;;;;;;22.02;27.09;98152.66;4983353;28;1355;-77
2022/09/09 06:04:41;;;;;;;;;;;;;;;22.47;26.29;98143.41;5007589;28;1789;-77
2022/09/09 06:07:07;;;;;;;;;;;;;;;22.36;26.30;98138.84;5018516;28;1099;-77
2022/09/09 06:09:32;;;;;;;;;;;;;;;21.90;27.31;98147.72;5018730;28;1114;-77
2022/09/09 06:11:58;;;;;;;;;;;;;;;21.88;27.39;98153.84;5018440;28;1380;-77
2022/09/09 06:14:25;;;;;;;;;;;;;;;21.90;27.16;98144.91;5002255;28;1211;-77
2022/09/09 06:16:52;;;;;;;;;;;;;;;21.68;27.69;98139.78;5002708;28;1135;-77
2022/09/09 06:19:21;;;;;;;;;;;;;;;21.87;27.35;98151.47;5002226;28;1910;-77
2022/09/09 06:21:47;;;;;;;;;;;;;;;21.79;27.26;98156.50;5018754;28;1143;-77
2022/09/09 06:24:17;;;;;;;;;;;;;;;21.74;27.39;98160.66;5018595;28;1505;-77
2022/09/09 06:26:43;;;;;;;;;;;;;;;22.18;26.83;98171.75;5020715;28;1300;-78
2022/09/09 06:29:16;;;;;;;;;;;;;;;22.55;26.26;98159.00;5022061;28;1385;-78
2022/09/09 06:31:41;;;;;;;;;;;;;;;22.07;27.06;98163.47;5038437;28;962;-78
2022/09/09 06:34:13;;;;;;;;;;;;;;;21.99;27.37;98162.06;5006244;28;1493;-77
2022/09/09 06:36:42;;;;;;;;;;;;;;;21.76;27.84;98175.19;5018212;28;1326;-77
2022/09/09 06:39:10;;;;;;;;;;;;;;;21.76;27.59;98174.38;5002410;28;1914;-77
2022/09/09 06:41:38;;;;;;;;;;;;;;;21.84;27.72;98176.59;5018513;28;1436;-77
2022/09/09 06:44:06;;;;;;;;;;;;;;;21.89;27.70;98174.47;5018461;28;1206;-77
2022/09/09 06:46:39;;;;;;;;;;;;;;;21.73;27.62;98181.72;5033780;28;1528;-77
2022/09/09 06:49:05;;;;;;;;;;;;;;;21.82;27.59;98179.09;5005666;28;1252;-77
2022/09/09 06:51:32;;;;;;;;;;;;;;;21.56;28.05;98180.94;5007126;28;1199;-77
2022/09/09 06:53:58;;;;;;;;;;;;;;;22.05;27.42;98185.78;5002319;28;1127;-77
2022/09/09 06:56:24;;;;;;;;;;;;;;;22.29;26.81;98178.72;5002383;28;1075;-77
2022/09/09 06:58:52;;;;;;;;;;;;;;;22.11;27.50;98178.38;5001742;28;1891;-78
2022/09/09 07:01:24;;;;;;;;;;;;;;;21.90;27.80;98178.91;5003090;28;1164;-77
2022/09/09 07:03:50;;;;;;;;;;;;;;;21.89;27.58;98169.59;5018475;28;1291;-77
2022/09/09 07:06:19;;;;;;;;;;;;;;;21.87;27.77;98176.97;5001919;28;1261;-77
2022/09/09 07:09:04;;;;;;;;;;;;;;;21.79;27.93;98171.47;5002020;28;1178;-77
2022/09/09 07:11:31;;;;;;;;;;;;;;;21.62;28.32;98184.03;5017764;28;1521;-77
2022/09/09 07:13:57;;;;;;;;;;;;;;;21.76;27.76;98180.84;5001965;28;1119;-77
2022/09/09 07:16:27;;;;;;;;;;;;;;;21.70;28.16;98182.59;5017940;28;1210;-77
2022/09/09 07:18:57;;;;;;;;;;;;;;;22.26;27.09;98173.94;5019095;28;1910;-77
2022/09/09 07:21:24;;;;;;;;;;;;;;;22.30;27.12;98179.50;5001330;28;1111;-77
2022/09/09 07:23:51;;;;;;;;;;;;;;;22.08;27.40;98184.91;5002110;28;1239;-78
2022/09/09 07:26:19;;;;;;;;;;;;;;;22.07;27.59;98188.97;5015198;28;1422;-78
2022/09/09 07:28:44;;;;;;;;;;;;;;;21.94;27.88;98176.78;5034517;28;1350;-77
2022/09/09 07:31:17;;;;;;;;;;;;;;;21.95;27.71;98176.31;5020704;28;1351;-77
2022/09/09 07:33:43;;;;;;;;;;;;;;;21.65;28.02;98177.47;5020724;28;983;-78
2022/09/09 07:36:25;;;;;;;;;;;;;;;21.78;28.11;98188.91;5021005;28;1652;-77
2022/09/09 07:38:53;;;;;;;;;;;;;;;21.79;27.88;98179.97;5003747;28;1985;-77
2022/09/09 07:41:22;;;;;;;;;;;;;;;21.73;28.25;98181.72;5036129;28;1267;-78
2022/09/09 07:43:49;;;;;;;;;;;;;;;21.68;27.96;98178.63;5001416;28;1151;-77
2022/09/09 07:46:16;;;;;;;;;;;;;;;21.89;27.79;98182.97;5000903;28;937;-77
2022/09/09 07:48:55;;;;;;;;;;;;;;;22.46;27.08;98182.31;5001292;28;1173;-77
2022/09/09 07:51:26;;;;;;;;;;;;;;;22.20;27.20;98181.38;5029881;28;1257;-77
2022/09/09 07:53:53;;;;;;;;;;;;;;;22.06;27.74;98176.06;5020873;28;1154;-77
2022/09/09 07:56:18;;;;;;;;;;;;;;;21.88;27.93;98187.06;5019112;28;1282;-77
2022/09/09 07:58:44;;;;;;;;;;;;;;;21.91;27.79;98186.94;5003426;28;1902;-78
2022/09/09 08:01:13;;;;;;;;;;;;;;;21.81;28.30;98188.81;5020936;28;969;-78
2022/09/09 08:03:39;;;;;;;;;;;;;;;21.74;28.38;98177.66;5021017;28;1264;-78
2022/09/09 08:06:06;;;;;;;;;;;;;;;21.71;28.41;98184.22;5021153;28;1510;-77
2022/09/09 08:08:31;;;;;;;;;;;;;;;21.67;28.17;98189.16;5016711;28;1318;-77
2022/09/09 08:11:07;;;;;;;;;;;;;;;21.75;27.99;98176.41;5035472;28;1441;-77
2022/09/09 08:13:36;;;;;;;;;;;;;;;21.85;28.02;98178.19;5036930;28;1384;-78
2022/09/09 08:16:12;;;;;;;;;;;;;;;21.73;28.16;98153.41;5017961;28;1523;-78
2022/09/09 08:18:38;;;;;;;;;;;;;;;21.70;28.40;98159.94;5019665;28;1910;-77
2022/09/09 08:21:13;;;;;;;;;;;;;;;22.18;27.73;98158.38;5019214;28;1190;-77
2022/09/09 08:23:42;;;;;;;;;;;;;;;22.47;27.29;98155.53;4976796;28;1112;-77
2022/09/09 08:26:12;;;;;;;;;;;;;;;22.22;27.49;98150.53;4973592;28;1137;-77
2022/09/09 08:28:38;;;;;;;;;;;;;;;22.14;27.63;98146.34;4973169;28;1465;-78
2022/09/09 08:31:07;;;;;;;;;;;;;;;21.97;28.19;98134.19;4973609;28;1112;-77
2022/09/09 08:33:33;;;;;;;;;;;;;;;21.79;28.00;98134.63;4973231;28;986;-78
2022/09/09 08:35:59;;;;;;;;;;;;;;;21.87;28.29;98140.13;4973449;28;958;-77
2022/09/09 08:38:24;;;;;;;;;;;;;;;21.93;27.96;98141.19;4941284;29;1899;-78
2022/09/09 08:40:50;;;;;;;;;;;;;;;21.92;28.08;98142.44;4996034;28;1001;-78
2022/09/09 08:43:17;;;;;;;;;;;;;;;21.93;27.80;98138.34;4972970;28;1140;-77
2022/09/09 08:45:48;;;;;;;;;;;;;;;21.91;28.03;98140.81;4972677;28;1575;-78
2022/09/09 08:48:29;;;;;;;;;;;;;;;21.71;28.70;98138.09;4957045;28;1143;-78
2022/09/09 08:51:01;;;;;;;;;;;;;;;21.79;28.32;98128.97;4976082;28;1291;-77
2022/09/09 08:53:31;;;;;;;;;;;;;;;21.79;28.33;98126.13;4976621;28;1060;-77
2022/09/09 08:55:59;;;;;;;;;;;;;;;22.24;27.86;98124.63;4972706;28;1252;-77
2022/09/09 08:58:41;;;;;;;;;;;;;;;22.25;27.37;98120.53;4975635;28;1973;-77
2022/09/09 09:01:16;;;;;;;;;;;;;;;21.93;28.11;98107.19;4976490;28;940;-78
2022/09/09 09:04:03;;;;;;;;;;;;;;;21.91;28.38;98121.00;4944894;28;1164;-78
2022/09/09 09:06:38;;;;;;;;;;;;;;;21.74;28.58;98117.38;4960284;28;1300;-77
2022/09/09 09:09:08;;;;;;;;;;;;;;;21.83;28.30;98123.22;4976340;28;1157;-78
2022/09/09 09:11:42;;;;;;;;;;;;;;;21.84;28.23;98119.94;4951800;28;1111;-78
2022/09/09 09:14:12;;;;;;;;;;;;;;;21.93;28.14;98112.88;4968108;28;1418;-77
2022/09/09 09:16:45;;;;;;;;;;;;;;;21.69;28.72;98115.88;4976767;28;1311;-77
2022/09/09 09:19:14;;;;;;;;;;;;;;;21.73;28.48;98112.97;4960011;28;1918;-77
2022/09/09 09:21:42;;;;;;;;;;;;;;;21.67;28.97;98126.88;4970735;28;1418;-77
2022/09/09 09:24:32;;;;;;;;;;;;;;;21.72;28.43;98119.88;4976129;28;1226;-78
2022/09/09 09:27:00;;;;;;;;;;;;;;;21.73;28.58;98136.41;4994537;28;1301;-78
2022/09/09 09:29:26;;;;;;;;;;;;;;;22.10;28.15;98128.59;4979405;28;1203;-78
2022/09/09 09:31:55;;;;;;;;;;;;;;;22.41;27.68;98128.19;4979485;28;895;-77
2022/09/09 09:34:23;;;;;;;;;;;;;;;22.39;27.48;98131.47;4979897;28;1142;-78
2022/09/09 09:36:53;;;;;;;;;;;;;;;22.07;28.15;98132.31;4979095;28;1163;-78
2022/09/09 09:39:28;;;;;;;;;;;;;;;21.85;28.35;98135.69;4979245;28;1918;-77
2022/09/09 09:41:59;;;;;;;;;;;;;;;21.81;28.48;98149.16;4977999;28;1511;-77
2022/09/09 09:44:28;;;;;;;;;;;;;;;21.82;28.38;98149.97;4959723;28;1144;-78
2022/09/09 09:47:08;;;;;;;;;;;;;;;21.81;28.78;98132.19;4960270;28;1267;-78
2022/09/09 09:49:35;;;;;;;;;;;;;;;21.78;28.53;98121.72;4959713;28;1389;-78
2022/09/09 09:52:03;;;;;;;;;;;;;;;21.56;29.13;98120.66;4976814;28;1133;-77
2022/09/09 09:54:31;;;;;;;;;;;;;;;21.67;28.70;98121.19;4955972;29;1271;-77
2022/09/09 09:57:09;;;;;;;;;;;;;;;21.76;28.75;98118.53;4926220;29;1456;-78
2022/09/09 09:59:35;;;;;;;;;;;;;;;21.70;28.84;98111.81;4921199;29;1902;-78
2022/09/09 10:02:14;;;;;;;;;;;;;;;21.64;28.99;98113.56;4924053;29;1350;-78
2022/09/09 10:04:41;;;;;;;;;;;;;;;21.57;29.01;98117.38;4925093;29;1135;-77
2022/09/09 10:07:19;;;;;;;;;;;;;;;22.06;28.36;98125.03;4925106;29;1456;-78
2022/09/09 10:09:52;;;;;;;;;;;;;;;22.48;27.64;98114.59;4940666;29;948;-78
2022/09/09 10:12:33;;;;;;;;;;;;;;;22.19;28.38;98111.78;4904108;29;1373;-78
2022/09/09 10:15:22;;;;;;;;;;;;;;;22.04;28.38;98119.03;4932605;28;2051;-77
2022/09/09 10:17:54;;;;;;;;;;;;;;;21.79;28.72;98117.66;4959858;29;955;-78
2022/09/09 10:20:44;;;;;;;;;;;;;;;21.81;28.83;98118.00;4943817;29;1118;-78
2022/09/09 10:23:28;;;;;;;;;;;;;;;21.64;29.26;98116.41;4902635;29;1087;-77
2022/09/09 10:25:56;;;;;;;;;;;;;;;21.74;29.13;98109.69;4894525;29;1439;-78
2022/09/09 10:28:28;;;;;;;;;;;;;;;21.79;28.79;98099.84;4900780;29;1434;-77
2022/09/09 10:31:32;;;;;;;;;;;;;;;21.77;29.08;98096.69;4902529;29;868;-78
2022/09/09 10:34:35;;;;;;;;;;;;;;;21.83;28.84;98109.84;4865341;29;1026;-78
2022/09/09 10:37:00;;;;;;;;;;;;;;;22.40;27.83;98112.44;4828250;29;924;-78
2022/09/09 10:39:26;;;;;;;;;;;;;;;22.42;28.02;98101.44;4813116;29;1981;-78
2022/09/09 10:42:03;;;;;;;;;;;;;;;22.04;28.59;98099.19;4827747;29;1429;-77
2022/09/09 10:44:29;;;;;;;;;;;;;;;21.85;28.71;98107.38;4830867;29;1400;-77
2022/09/09 10:47:06;;;;;;;;;;;;;;;21.95;28.75;98101.88;4846075;29;1339;-78
2022/09/09 10:49:34;;;;;;;;;;;;;;;21.78;28.92;98110.38;4827738;29;997;-78
2022/09/09 10:52:22;;;;;;;;;;;;;;;21.87;28.84;98108.97;4827740;29;1208;-77
2022/09/09 10:55:06;;;;;;;;;;;;;;;21.83;29.04;98107.03;4836813;29;1160;-78
2022/09/09 10:57:38;;;;;;;;;;;;;;;21.84;28.93;98108.59;4846191;29;1001;-78
2022/09/09 11:00:05;;;;;;;;;;;;;;;21.92;28.80;98102.78;4846069;29;1986;-77
2022/09/09 11:02:31;;;;;;;;;;;;;;;21.67;28.96;98101.38;4845212;29;1552;-78
2022/09/09 11:04:56;;;;;;;;;;;;;;;21.81;28.67;98109.50;4881862;29;1342;-77
2022/09/09 11:07:25;;;;;;;;;;;;;;;21.90;28.94;98099.56;4920834;29;972;-77
2022/09/09 11:09:53;;;;;;;;;;;;;;;21.80;28.66;98102.25;4922083;29;1004;-77
2022/09/09 11:12:20;;;;;;;;;;;;;;;22.10;28.54;98108.75;4958884;28;985;-78
2022/09/09 11:14:46;;;;;;;;;;;;;;;22.42;27.93;98112.75;4958913;29;951;-77
2022/09/09 11:17:22;;;;;;;;;;;;;;;21.81;28.77;98098.19;4959294;29;976;-78
2022/09/09 11:19:47;;;;;;;;;;;;;;;21.97;28.59;98105.88;4966988;28;1911;-78
2022/09/09 11:22:31;;;;;;;;;;;;;;;21.92;28.94;98111.28;4999540;28;981;-78
2022/09/09 11:25:00;;;;;;;;;;;;;;;21.84;28.95;98114.28;4999668;28;929;-77
2022/09/09 11:28:04;;;;;;;;;;;;;;;21.65;29.24;98100.22;4999556;28;933;-77
2022/09/09 11:30:40;;;;;;;;;;;;;;;21.65;29.50;98097.38;4997250;28;906;-78
2022/09/09 11:33:17;;;;;;;;;;;;;;;21.76;29.04;98090.22;5004235;28;1383;-77
2022/09/09 11:36:01;;;;;;;;;;;;;;;21.89;28.82;98087.44;5017116;28;1082;-78
2022/09/09 11:38:27;;;;;;;;;;;;;;;21.90;28.82;98088.25;5017007;28;1969;-78
2022/09/09 11:41:10;;;;;;;;;;;;;;;21.85;28.89;98086.75;5000691;28;1115;-77
2022/09/09 11:43:38;;;;;;;;;;;;;;;21.90;28.74;98093.91;5000169;28;1084;-77
2022/09/09 11:46:04;;;;;;;;;;;;;;;22.26;28.23;98105.91;5016798;28;924;-77
2022/09/09 11:48:33;;;;;;;;;;;;;;;22.40;28.18;98093.38;5003221;28;1341;-77
2022/09/09 11:51:00;;;;;;;;;;;;;;;22.07;28.54;98081.28;4996761;28;1229;-78
2022/09/09 11:53:26;;;;;;;;;;;;;;;22.07;28.69;98075.63;4977488;28;832;-77
2022/09/09 11:56:15;;;;;;;;;;;;;;;21.98;28.85;98073.44;4961392;28;1068;-78
2022/09/09 11:58:45;;;;;;;;;;;;;;;21.75;29.38;98077.28;4976982;28;1906;-77
2022/09/09 12:01:29;;;;;;;;;;;;;;;21.90;29.08;98074.06;4986437;28;919;-77
2022/09/09 12:04:25;;;;;;;;;;;;;;;21.83;29.12;98084.38;4994637;28;1501;-77
2022/09/09 12:06:54;;;;;;;;;;;;;;;21.82;28.92;98084.81;4957928;29;876;-77
2022/09/09 12:09:38;;;;;;;;;;;;;;;21.88;29.14;98071.69;4955000;29;942;-77
2022/09/09 12:12:07;;;;;;;;;;;;;;;21.62;29.17;98072.81;4951479;29;937;-77
2022/09/09 12:14:37;;;;;;;;;;;;;;;21.78;29.18;98079.22;4957792;28;852;-78
2022/09/09 12:17:09;;;;;;;;;;;;;;;21.72;29.20;98066.84;4954219;29;927;-77
2022/09/09 12:19:34;;;;;;;;;;;;;;;21.71;29.09;98062.44;4957084;29;1914;-78
2022/09/09 12:22:07;;;;;;;;;;;;;;;21.56;29.34;98064.03;4957339;29;937;-77
2022/09/09 12:24:38;;;;;;;;;;;;;;;22.11;28.87;98056.53;4951899;28;1109;-77
2022/09/09 12:27:03;;;;;;;;;;;;;;;22.17;28.51;98057.56;4961158;28;951;-77
2022/09/09 12:29:41;;;;;;;;;;;;;;;22.10;28.55;98069.06;4976485;28;956;-78
2022/09/09 12:32:16;;;;;;;;;;;;;;;21.88;29.02;98062.41;4976678;28;943;-77
2022/09/09 12:34:46;;;;;;;;;;;;;;;21.82;29.04;98054.44;4953669;29;1393;-77
2022/09/09 12:37:23;;;;;;;;;;;;;;;21.83;28.99;98061.69;4957471;29;991;-77
2022/09/09 12:39:53;;;;;;;;;;;;;;;21.59;29.49;98051.81;4957067;29;1906;-77
2022/09/09 12:42:19;;;;;;;;;;;;;;;21.74;29.08;98052.25;4964387;28;1043;-77
2022/09/09 12:44:54;;;;;;;;;;;;;;;21.66;29.36;98051.66;5015576;28;838;-79
2022/09/09 12:47:38;;;;;;;;;;;;;;;21.66;29.39;98054.47;5015474;28;1009;-77
2022/09/09 12:50:03;;;;;;;;;;;;;;;21.75;29.16;98054.63;5032234;28;1653;-77
2022/09/09 12:52:30;;;;;;;;;;;;;;;21.87;29.05;98049.50;5035050;28;844;-77
2022/09/09 12:54:56;;;;;;;;;;;;;;;22.46;28.16;98057.56;5035285;28;963;-77
2022/09/09 12:57:22;;;;;;;;;;;;;;;22.00;28.52;98047.50;5002242;28;1108;-77
2022/09/09 12:59:48;;;;;;;;;;;;;;;22.03;28.99;98050.25;5018806;28;1910;-78
2022/09/09 13:02:31;;;;;;;;;;;;;;;21.96;28.85;98046.78;5037600;28;795;-78
2022/09/09 13:05:05;;;;;;;;;;;;;;;21.84;28.91;98037.78;5002076;28;1516;-77
2022/09/09 13:07:31;;;;;;;;;;;;;;;21.97;28.84;98042.75;5002209;28;874;-77
2022/09/09 13:09:56;;;;;;;;;;;;;;;21.70;29.09;98038.16;5019467;28;834;-77
2022/09/09 13:12:25;;;;;;;;;;;;;;;21.75;29.21;98043.28;5019819;28;922;-77
2022/09/09 13:14:53;;;;;;;;;;;;;;;21.79;28.97;98038.34;5037087;28;1068;-77
2022/09/09 13:17:23;;;;;;;;;;;;;;;21.82;29.11;98043.13;5037363;28;925;-77